sensor_id;sensor_type;location;lat;lon;timestamp;P1;durP1;ratioP1;P2;durP2;ratioP2
51618;SDS011;38518;53.164;5.430;2022-07-10T00:02:03;6.93;;;1.98;;
51618;SDS011;38518;53.164;5.430;2022-07-10T00:04:29;6.07;;;1.95;;
51618;SDS011;38518;53.164;5.430;2022-07-10T00:06:55;7.00;;;1.90;;
51618;SDS011;38518;53.164;5.430;2022-07-10T00:09:23;6.75;;;1.90;;
51618;SDS011;38518;53.164;5.430;2022-07-10T00:11:49;5.75;;;1.50;;
51618;SDS011;38518;53.164;5.430;2022-07-10T00:14:15;4.97;;;1.75;;
51618;SDS011;38518;53.164;5.430;2022-07-10T00:16:41;5.80;;;1.80;;
51618;SDS011;38518;53.164;5.430;2022-07-10T00:19:09;6.22;;;1.85;;
51618;SDS011;38518;53.164;5.430;2022-07-10T00:21:35;4.68;;;1.60;;
51618;SDS011;38518;53.164;5.430;2022-07-10T00:24:00;6.10;;;2.00;;
51618;SDS011;38518;53.164;5.430;2022-07-10T00:26:26;6.85;;;2.67;;
51618;SDS011;38518;53.164;5.430;2022-07-10T00:28:52;5.28;;;1.77;;
51618;SDS011;38518;53.164;5.430;2022-07-10T00:31:18;5.57;;;1.40;;
51618;SDS011;38518;53.164;5.430;2022-07-10T00:33:44;5.18;;;1.70;;
51618;SDS011;38518;53.164;5.430;2022-07-10T00:36:10;4.82;;;1.70;;
51618;SDS011;38518;53.164;5.430;2022-07-10T00:38:36;4.75;;;1.65;;
51618;SDS011;38518;53.164;5.430;2022-07-10T00:41:01;4.93;;;1.75;;
51618;SDS011;38518;53.164;5.430;2022-07-10T00:43:27;4.10;;;1.25;;
51618;SDS011;38518;53.164;5.430;2022-07-10T00:45:53;5.70;;;1.60;;
51618;SDS011;38518;53.164;5.430;2022-07-10T00:48:19;4.35;;;1.42;;
51618;SDS011;38518;53.164;5.430;2022-07-10T00:50:45;5.32;;;1.90;;
51618;SDS011;38518;53.164;5.430;2022-07-10T00:53:12;5.32;;;1.75;;
51618;SDS011;38518;53.164;5.430;2022-07-10T00:55:39;4.10;;;1.40;;
51618;SDS011;38518;53.164;5.430;2022-07-10T00:58:06;7.43;;;1.73;;
51618;SDS011;38518;53.164;5.430;2022-07-10T01:00:33;6.57;;;1.77;;
51618;SDS011;38518;53.164;5.430;2022-07-10T01:03:05;6.18;;;2.53;;
51618;SDS011;38518;53.164;5.430;2022-07-10T01:05:31;4.28;;;1.48;;
51618;SDS011;38518;53.164;5.430;2022-07-10T01:07:57;5.25;;;1.70;;
51618;SDS011;38518;53.164;5.430;2022-07-10T01:10:23;6.03;;;2.13;;
51618;SDS011;38518;53.164;5.430;2022-07-10T01:12:48;5.38;;;1.60;;
51618;SDS011;38518;53.164;5.430;2022-07-10T01:15:14;5.10;;;1.95;;
51618;SDS011;38518;53.164;5.430;2022-07-10T01:17:40;6.90;;;1.60;;
51618;SDS011;38518;53.164;5.430;2022-07-10T01:20:07;5.28;;;1.55;;
51618;SDS011;38518;53.164;5.430;2022-07-10T01:22:35;6.32;;;2.08;;
51618;SDS011;38518;53.164;5.430;2022-07-10T01:25:02;5.75;;;1.88;;
51618;SDS011;38518;53.164;5.430;2022-07-10T01:27:28;4.20;;;1.73;;
51618;SDS011;38518;53.164;5.430;2022-07-10T01:29:53;8.88;;;2.25;;
51618;SDS011;38518;53.164;5.430;2022-07-10T01:32:19;5.45;;;1.75;;
51618;SDS011;38518;53.164;5.430;2022-07-10T01:34:45;8.13;;;2.00;;
51618;SDS011;38518;53.164;5.430;2022-07-10T01:37:12;5.93;;;2.22;;
51618;SDS011;38518;53.164;5.430;2022-07-10T01:39:38;7.20;;;1.80;;
51618;SDS011;38518;53.164;5.430;2022-07-10T01:42:04;5.25;;;1.67;;
51618;SDS011;38518;53.164;5.430;2022-07-10T01:44:30;4.95;;;1.70;;
51618;SDS011;38518;53.164;5.430;2022-07-10T01:46:56;4.85;;;1.58;;
51618;SDS011;38518;53.164;5.430;2022-07-10T01:49:21;7.18;;;2.08;;
51618;SDS011;38518;53.164;5.430;2022-07-10T01:51:47;4.43;;;1.50;;
51618;SDS011;38518;53.164;5.430;2022-07-10T01:54:13;6.72;;;1.45;;
51618;SDS011;38518;53.164;5.430;2022-07-10T01:56:39;5.85;;;1.55;;
51618;SDS011;38518;53.164;5.430;2022-07-10T01:59:05;8.25;;;1.73;;
51618;SDS011;38518;53.164;5.430;2022-07-10T02:01:31;5.93;;;1.90;;
51618;SDS011;38518;53.164;5.430;2022-07-10T02:03:57;6.07;;;1.95;;
51618;SDS011;38518;53.164;5.430;2022-07-10T02:06:41;7.75;;;1.70;;
51618;SDS011;38518;53.164;5.430;2022-07-10T02:09:07;5.15;;;1.80;;
51618;SDS011;38518;53.164;5.430;2022-07-10T02:11:33;7.07;;;1.88;;
51618;SDS011;38518;53.164;5.430;2022-07-10T02:13:59;6.20;;;2.22;;
51618;SDS011;38518;53.164;5.430;2022-07-10T02:16:24;6.80;;;1.85;;
51618;SDS011;38518;53.164;5.430;2022-07-10T02:18:50;5.85;;;1.83;;
51618;SDS011;38518;53.164;5.430;2022-07-10T02:21:19;6.45;;;1.90;;
51618;SDS011;38518;53.164;5.430;2022-07-10T02:23:45;5.30;;;2.03;;
51618;SDS011;38518;53.164;5.430;2022-07-10T02:26:10;6.35;;;1.67;;
51618;SDS011;38518;53.164;5.430;2022-07-10T02:28:36;6.43;;;2.00;;
51618;SDS011;38518;53.164;5.430;2022-07-10T02:31:02;6.05;;;1.95;;
51618;SDS011;38518;53.164;5.430;2022-07-10T02:33:28;8.07;;;2.28;;
51618;SDS011;38518;53.164;5.430;2022-07-10T02:35:54;6.38;;;2.13;;
51618;SDS011;38518;53.164;5.430;2022-07-10T02:38:19;5.68;;;1.90;;
51618;SDS011;38518;53.164;5.430;2022-07-10T02:40:45;5.75;;;2.00;;
51618;SDS011;38518;53.164;5.430;2022-07-10T02:43:11;5.93;;;2.20;;
51618;SDS011;38518;53.164;5.430;2022-07-10T02:45:37;8.88;;;2.00;;
51618;SDS011;38518;53.164;5.430;2022-07-10T02:48:02;5.55;;;1.92;;
51618;SDS011;38518;53.164;5.430;2022-07-10T02:50:29;9.30;;;2.30;;
51618;SDS011;38518;53.164;5.430;2022-07-10T02:52:54;8.25;;;2.72;;
51618;SDS011;38518;53.164;5.430;2022-07-10T02:55:20;8.98;;;2.40;;
51618;SDS011;38518;53.164;5.430;2022-07-10T02:57:46;6.88;;;2.15;;
51618;SDS011;38518;53.164;5.430;2022-07-10T03:00:12;8.82;;;2.40;;
51618;SDS011;38518;53.164;5.430;2022-07-10T03:02:38;5.30;;;2.00;;
51618;SDS011;38518;53.164;5.430;2022-07-10T03:05:04;8.50;;;2.20;;
51618;SDS011;38518;53.164;5.430;2022-07-10T03:07:30;7.93;;;2.10;;
51618;SDS011;38518;53.164;5.430;2022-07-10T03:09:56;9.25;;;2.63;;
51618;SDS011;38518;53.164;5.430;2022-07-10T03:12:21;9.05;;;2.42;;
51618;SDS011;38518;53.164;5.430;2022-07-10T03:14:47;9.18;;;2.88;;
51618;SDS011;38518;53.164;5.430;2022-07-10T03:17:13;7.00;;;2.33;;
51618;SDS011;38518;53.164;5.430;2022-07-10T03:19:38;7.97;;;2.50;;
51618;SDS011;38518;53.164;5.430;2022-07-10T03:22:04;7.82;;;2.45;;
51618;SDS011;38518;53.164;5.430;2022-07-10T03:24:30;6.85;;;2.58;;
51618;SDS011;38518;53.164;5.430;2022-07-10T03:26:56;8.25;;;2.58;;
51618;SDS011;38518;53.164;5.430;2022-07-10T03:29:22;6.90;;;2.20;;
51618;SDS011;38518;53.164;5.430;2022-07-10T03:31:47;8.30;;;2.83;;
51618;SDS011;38518;53.164;5.430;2022-07-10T03:34:13;8.82;;;2.65;;
51618;SDS011;38518;53.164;5.430;2022-07-10T03:36:39;7.72;;;2.40;;
51618;SDS011;38518;53.164;5.430;2022-07-10T03:39:05;7.57;;;2.83;;
51618;SDS011;38518;53.164;5.430;2022-07-10T03:41:30;6.53;;;2.63;;
51618;SDS011;38518;53.164;5.430;2022-07-10T03:43:56;6.18;;;2.33;;
51618;SDS011;38518;53.164;5.430;2022-07-10T03:46:22;7.90;;;2.35;;
51618;SDS011;38518;53.164;5.430;2022-07-10T03:48:48;6.00;;;2.90;;
51618;SDS011;38518;53.164;5.430;2022-07-10T03:51:13;6.13;;;2.45;;
51618;SDS011;38518;53.164;5.430;2022-07-10T03:53:39;8.30;;;2.40;;
51618;SDS011;38518;53.164;5.430;2022-07-10T03:56:05;8.43;;;2.42;;
51618;SDS011;38518;53.164;5.430;2022-07-10T03:58:31;7.05;;;2.22;;
51618;SDS011;38518;53.164;5.430;2022-07-10T04:00:57;6.35;;;2.22;;
51618;SDS011;38518;53.164;5.430;2022-07-10T04:03:22;7.97;;;2.97;;
51618;SDS011;38518;53.164;5.430;2022-07-10T04:05:48;6.93;;;2.35;;
51618;SDS011;38518;53.164;5.430;2022-07-10T04:08:14;6.78;;;2.50;;
51618;SDS011;38518;53.164;5.430;2022-07-10T04:10:40;9.00;;;2.33;;
51618;SDS011;38518;53.164;5.430;2022-07-10T04:13:06;6.60;;;2.42;;
51618;SDS011;38518;53.164;5.430;2022-07-10T04:15:32;6.75;;;2.50;;
51618;SDS011;38518;53.164;5.430;2022-07-10T04:17:57;5.20;;;2.28;;
51618;SDS011;38518;53.164;5.430;2022-07-10T04:20:23;7.43;;;2.40;;
51618;SDS011;38518;53.164;5.430;2022-07-10T04:22:50;7.85;;;2.70;;
51618;SDS011;38518;53.164;5.430;2022-07-10T04:25:16;6.18;;;2.20;;
51618;SDS011;38518;53.164;5.430;2022-07-10T04:27:41;7.75;;;3.10;;
51618;SDS011;38518;53.164;5.430;2022-07-10T04:30:07;6.60;;;2.58;;
51618;SDS011;38518;53.164;5.430;2022-07-10T04:32:33;6.97;;;2.22;;
51618;SDS011;38518;53.164;5.430;2022-07-10T04:34:59;7.93;;;2.67;;
51618;SDS011;38518;53.164;5.430;2022-07-10T04:37:26;6.75;;;2.40;;
51618;SDS011;38518;53.164;5.430;2022-07-10T04:39:53;6.97;;;2.50;;
51618;SDS011;38518;53.164;5.430;2022-07-10T04:42:18;10.35;;;3.20;;
51618;SDS011;38518;53.164;5.430;2022-07-10T04:44:44;9.20;;;2.40;;
51618;SDS011;38518;53.164;5.430;2022-07-10T04:47:10;8.48;;;2.83;;
51618;SDS011;38518;53.164;5.430;2022-07-10T04:49:36;6.72;;;2.33;;
51618;SDS011;38518;53.164;5.430;2022-07-10T04:52:02;4.68;;;2.00;;
51618;SDS011;38518;53.164;5.430;2022-07-10T04:54:28;5.05;;;2.20;;
51618;SDS011;38518;53.164;5.430;2022-07-10T04:56:53;5.18;;;2.13;;
51618;SDS011;38518;53.164;5.430;2022-07-10T04:59:19;5.97;;;1.70;;
51618;SDS011;38518;53.164;5.430;2022-07-10T05:01:45;4.20;;;1.98;;
51618;SDS011;38518;53.164;5.430;2022-07-10T05:04:11;4.13;;;1.52;;
51618;SDS011;38518;53.164;5.430;2022-07-10T05:06:36;3.28;;;1.60;;
51618;SDS011;38518;53.164;5.430;2022-07-10T05:09:02;6.10;;;2.40;;
51618;SDS011;38518;53.164;5.430;2022-07-10T05:11:29;7.53;;;2.13;;
51618;SDS011;38518;53.164;5.430;2022-07-10T05:13:56;6.68;;;2.30;;
51618;SDS011;38518;53.164;5.430;2022-07-10T05:16:22;6.45;;;2.38;;
51618;SDS011;38518;53.164;5.430;2022-07-10T05:18:48;5.55;;;2.13;;
51618;SDS011;38518;53.164;5.430;2022-07-10T05:21:14;5.28;;;2.22;;
51618;SDS011;38518;53.164;5.430;2022-07-10T05:23:40;8.73;;;2.72;;
51618;SDS011;38518;53.164;5.430;2022-07-10T05:26:06;6.10;;;2.25;;
51618;SDS011;38518;53.164;5.430;2022-07-10T05:28:32;7.88;;;2.92;;
51618;SDS011;38518;53.164;5.430;2022-07-10T05:30:58;5.47;;;1.83;;
51618;SDS011;38518;53.164;5.430;2022-07-10T05:33:23;8.05;;;2.47;;
51618;SDS011;38518;53.164;5.430;2022-07-10T05:35:51;4.68;;;2.00;;
51618;SDS011;38518;53.164;5.430;2022-07-10T05:38:17;8.35;;;2.47;;
51618;SDS011;38518;53.164;5.430;2022-07-10T05:40:43;6.10;;;2.10;;
51618;SDS011;38518;53.164;5.430;2022-07-10T05:43:09;5.43;;;2.08;;
51618;SDS011;38518;53.164;5.430;2022-07-10T05:45:36;7.80;;;2.20;;
51618;SDS011;38518;53.164;5.430;2022-07-10T05:48:02;10.18;;;2.45;;
51618;SDS011;38518;53.164;5.430;2022-07-10T05:50:28;7.15;;;2.47;;
51618;SDS011;38518;53.164;5.430;2022-07-10T05:52:54;5.60;;;2.30;;
51618;SDS011;38518;53.164;5.430;2022-07-10T05:55:20;4.05;;;1.65;;
51618;SDS011;38518;53.164;5.430;2022-07-10T05:57:45;5.57;;;2.05;;
51618;SDS011;38518;53.164;5.430;2022-07-10T06:00:12;5.40;;;1.92;;
51618;SDS011;38518;53.164;5.430;2022-07-10T06:02:38;6.65;;;2.60;;
51618;SDS011;38518;53.164;5.430;2022-07-10T06:05:04;9.75;;;2.80;;
51618;SDS011;38518;53.164;5.430;2022-07-10T06:07:31;7.22;;;2.20;;
51618;SDS011;38518;53.164;5.430;2022-07-10T06:09:57;5.20;;;2.08;;
51618;SDS011;38518;53.164;5.430;2022-07-10T06:12:23;5.47;;;1.90;;
51618;SDS011;38518;53.164;5.430;2022-07-10T06:14:48;3.67;;;1.50;;
51618;SDS011;38518;53.164;5.430;2022-07-10T06:17:14;5.75;;;1.90;;
51618;SDS011;38518;53.164;5.430;2022-07-10T06:19:40;4.68;;;1.80;;
51618;SDS011;38518;53.164;5.430;2022-07-10T06:22:06;4.90;;;1.88;;
51618;SDS011;38518;53.164;5.430;2022-07-10T06:24:50;5.72;;;1.80;;
51618;SDS011;38518;53.164;5.430;2022-07-10T06:27:16;4.55;;;2.00;;
51618;SDS011;38518;53.164;5.430;2022-07-10T06:29:42;4.53;;;1.70;;
51618;SDS011;38518;53.164;5.430;2022-07-10T06:32:08;4.55;;;1.95;;
51618;SDS011;38518;53.164;5.430;2022-07-10T06:34:34;6.82;;;1.70;;
51618;SDS011;38518;53.164;5.430;2022-07-10T06:37:00;4.70;;;2.20;;
51618;SDS011;38518;53.164;5.430;2022-07-10T06:39:26;4.78;;;2.55;;
51618;SDS011;38518;53.164;5.430;2022-07-10T06:41:53;6.95;;;1.90;;
51618;SDS011;38518;53.164;5.430;2022-07-10T06:44:19;6.15;;;1.80;;
51618;SDS011;38518;53.164;5.430;2022-07-10T06:46:47;6.60;;;1.90;;
51618;SDS011;38518;53.164;5.430;2022-07-10T06:49:32;5.05;;;1.95;;
51618;SDS011;38518;53.164;5.430;2022-07-10T06:51:58;6.55;;;1.70;;
51618;SDS011;38518;53.164;5.430;2022-07-10T06:54:24;3.88;;;1.50;;
51618;SDS011;38518;53.164;5.430;2022-07-10T06:56:53;5.15;;;2.00;;
51618;SDS011;38518;53.164;5.430;2022-07-10T06:59:19;7.25;;;1.92;;
51618;SDS011;38518;53.164;5.430;2022-07-10T07:01:44;5.50;;;2.00;;
51618;SDS011;38518;53.164;5.430;2022-07-10T07:04:10;5.88;;;1.60;;
51618;SDS011;38518;53.164;5.430;2022-07-10T07:06:36;4.43;;;1.55;;
51618;SDS011;38518;53.164;5.430;2022-07-10T07:09:02;4.75;;;1.50;;
51618;SDS011;38518;53.164;5.430;2022-07-10T07:11:28;4.75;;;1.60;;
51618;SDS011;38518;53.164;5.430;2022-07-10T07:13:53;4.38;;;1.70;;
51618;SDS011;38518;53.164;5.430;2022-07-10T07:16:19;4.15;;;1.50;;
51618;SDS011;38518;53.164;5.430;2022-07-10T07:18:52;4.60;;;1.90;;
51618;SDS011;38518;53.164;5.430;2022-07-10T07:21:20;5.65;;;1.88;;
51618;SDS011;38518;53.164;5.430;2022-07-10T07:24:04;4.07;;;1.58;;
51618;SDS011;38518;53.164;5.430;2022-07-10T07:26:30;3.35;;;1.70;;
51618;SDS011;38518;53.164;5.430;2022-07-10T07:28:56;3.67;;;1.80;;
51618;SDS011;38518;53.164;5.430;2022-07-10T07:31:22;4.57;;;1.70;;
51618;SDS011;38518;53.164;5.430;2022-07-10T07:33:48;7.00;;;1.92;;
51618;SDS011;38518;53.164;5.430;2022-07-10T07:36:13;3.85;;;1.60;;
51618;SDS011;38518;53.164;5.430;2022-07-10T07:38:39;4.50;;;1.52;;
51618;SDS011;38518;53.164;5.430;2022-07-10T07:41:05;4.57;;;1.95;;
51618;SDS011;38518;53.164;5.430;2022-07-10T07:43:31;4.47;;;1.67;;
51618;SDS011;38518;53.164;5.430;2022-07-10T07:45:57;2.80;;;1.40;;
51618;SDS011;38518;53.164;5.430;2022-07-10T07:48:23;4.60;;;1.63;;
51618;SDS011;38518;53.164;5.430;2022-07-10T07:50:48;4.22;;;1.80;;
51618;SDS011;38518;53.164;5.430;2022-07-10T07:53:14;3.30;;;1.60;;
51618;SDS011;38518;53.164;5.430;2022-07-10T07:55:40;3.78;;;1.50;;
51618;SDS011;38518;53.164;5.430;2022-07-10T07:58:06;4.40;;;1.80;;
51618;SDS011;38518;53.164;5.430;2022-07-10T08:00:31;5.80;;;1.83;;
51618;SDS011;38518;53.164;5.430;2022-07-10T08:02:58;4.20;;;1.70;;
51618;SDS011;38518;53.164;5.430;2022-07-10T08:05:26;4.65;;;2.00;;
51618;SDS011;38518;53.164;5.430;2022-07-10T08:07:56;2.63;;;1.67;;
51618;SDS011;38518;53.164;5.430;2022-07-10T08:10:34;6.40;;;1.75;;
51618;SDS011;38518;53.164;5.430;2022-07-10T08:13:03;3.80;;;1.80;;
51618;SDS011;38518;53.164;5.430;2022-07-10T08:15:31;4.68;;;2.30;;
51618;SDS011;38518;53.164;5.430;2022-07-10T08:17:59;3.92;;;1.63;;
51618;SDS011;38518;53.164;5.430;2022-07-10T08:20:26;4.68;;;2.35;;
51618;SDS011;38518;53.164;5.430;2022-07-10T08:23:01;5.80;;;2.97;;
51618;SDS011;38518;53.164;5.430;2022-07-10T08:25:27;5.07;;;2.40;;
51618;SDS011;38518;53.164;5.430;2022-07-10T08:28:01;5.93;;;2.10;;
51618;SDS011;38518;53.164;5.430;2022-07-10T08:30:28;3.20;;;1.52;;
51618;SDS011;38518;53.164;5.430;2022-07-10T08:32:58;4.47;;;2.05;;
51618;SDS011;38518;53.164;5.430;2022-07-10T08:35:27;6.70;;;2.05;;
51618;SDS011;38518;53.164;5.430;2022-07-10T08:37:52;4.43;;;1.60;;
51618;SDS011;38518;53.164;5.430;2022-07-10T08:40:19;5.28;;;1.67;;
51618;SDS011;38518;53.164;5.430;2022-07-10T08:42:49;5.68;;;1.85;;
51618;SDS011;38518;53.164;5.430;2022-07-10T08:45:15;5.55;;;1.80;;
51618;SDS011;38518;53.164;5.430;2022-07-10T08:47:44;6.68;;;2.72;;
51618;SDS011;38518;53.164;5.430;2022-07-10T08:50:23;5.03;;;1.40;;
51618;SDS011;38518;53.164;5.430;2022-07-10T08:52:57;2.90;;;1.38;;
51618;SDS011;38518;53.164;5.430;2022-07-10T08:55:25;3.90;;;1.70;;
51618;SDS011;38518;53.164;5.430;2022-07-10T08:57:51;4.45;;;1.80;;
51618;SDS011;38518;53.164;5.430;2022-07-10T09:00:18;6.88;;;2.35;;
51618;SDS011;38518;53.164;5.430;2022-07-10T09:02:44;3.97;;;1.60;;
51618;SDS011;38518;53.164;5.430;2022-07-10T09:05:10;3.70;;;1.77;;
51618;SDS011;38518;53.164;5.430;2022-07-10T09:07:36;7.18;;;1.90;;
51618;SDS011;38518;53.164;5.430;2022-07-10T09:10:06;5.80;;;1.58;;
51618;SDS011;38518;53.164;5.430;2022-07-10T09:15:35;4.97;;;1.60;;
51618;SDS011;38518;53.164;5.430;2022-07-10T09:18:02;3.22;;;1.45;;
51618;SDS011;38518;53.164;5.430;2022-07-10T09:20:32;3.92;;;1.50;;
51618;SDS011;38518;53.164;5.430;2022-07-10T09:23:16;2.90;;;1.30;;
51618;SDS011;38518;53.164;5.430;2022-07-10T09:25:46;3.35;;;1.50;;
51618;SDS011;38518;53.164;5.430;2022-07-10T09:28:13;4.45;;;1.65;;
51618;SDS011;38518;53.164;5.430;2022-07-10T09:30:42;4.95;;;1.73;;
51618;SDS011;38518;53.164;5.430;2022-07-10T09:44:03;3.50;;;1.60;;
51618;SDS011;38518;53.164;5.430;2022-07-10T09:46:36;4.38;;;1.67;;
51618;SDS011;38518;53.164;5.430;2022-07-10T09:51:33;4.32;;;1.63;;
51618;SDS011;38518;53.164;5.430;2022-07-10T09:54:01;3.78;;;1.30;;
51618;SDS011;38518;53.164;5.430;2022-07-10T09:56:37;5.13;;;2.00;;
51618;SDS011;38518;53.164;5.430;2022-07-10T09:59:12;4.22;;;1.52;;
51618;SDS011;38518;53.164;5.430;2022-07-10T10:01:44;10.55;;;2.88;;
51618;SDS011;38518;53.164;5.430;2022-07-10T10:04:21;3.73;;;1.40;;
51618;SDS011;38518;53.164;5.430;2022-07-10T10:06:52;4.03;;;1.50;;
51618;SDS011;38518;53.164;5.430;2022-07-10T10:09:25;4.68;;;2.03;;
51618;SDS011;38518;53.164;5.430;2022-07-10T10:11:57;7.13;;;1.70;;
51618;SDS011;38518;53.164;5.430;2022-07-10T10:14:28;5.15;;;1.40;;
51618;SDS011;38518;53.164;5.430;2022-07-10T10:16:55;3.53;;;1.50;;
51618;SDS011;38518;53.164;5.430;2022-07-10T10:19:23;3.83;;;1.83;;
51618;SDS011;38518;53.164;5.430;2022-07-10T10:22:08;5.90;;;1.60;;
51618;SDS011;38518;53.164;5.430;2022-07-10T10:24:34;4.70;;;1.35;;
51618;SDS011;38518;53.164;5.430;2022-07-10T10:27:01;4.10;;;1.52;;
51618;SDS011;38518;53.164;5.430;2022-07-10T10:29:29;4.30;;;1.73;;
51618;SDS011;38518;53.164;5.430;2022-07-10T10:31:58;3.00;;;1.48;;
51618;SDS011;38518;53.164;5.430;2022-07-10T10:34:43;1.92;;;1.20;;
51618;SDS011;38518;53.164;5.430;2022-07-10T10:39:59;3.40;;;1.42;;
51618;SDS011;38518;53.164;5.430;2022-07-10T10:48:15;2.72;;;1.30;;
51618;SDS011;38518;53.164;5.430;2022-07-10T10:50:49;4.63;;;1.63;;
51618;SDS011;38518;53.164;5.430;2022-07-10T10:58:28;3.55;;;1.55;;
51618;SDS011;38518;53.164;5.430;2022-07-10T11:14:26;3.60;;;1.55;;
51618;SDS011;38518;53.164;5.430;2022-07-10T11:16:56;3.20;;;1.52;;
51618;SDS011;38518;53.164;5.430;2022-07-10T11:19:26;4.78;;;1.40;;
51618;SDS011;38518;53.164;5.430;2022-07-10T11:24:42;2.55;;;1.23;;
51618;SDS011;38518;53.164;5.430;2022-07-10T11:30:00;3.03;;;1.42;;
51618;SDS011;38518;53.164;5.430;2022-07-10T11:32:27;4.70;;;1.30;;
51618;SDS011;38518;53.164;5.430;2022-07-10T11:34:54;4.43;;;1.67;;
51618;SDS011;38518;53.164;5.430;2022-07-10T11:37:20;3.92;;;1.35;;
51618;SDS011;38518;53.164;5.430;2022-07-10T11:39:47;2.53;;;1.40;;
51618;SDS011;38518;53.164;5.430;2022-07-10T11:42:13;2.90;;;1.30;;
51618;SDS011;38518;53.164;5.430;2022-07-10T11:44:38;2.80;;;1.27;;
51618;SDS011;38518;53.164;5.430;2022-07-10T11:47:05;4.50;;;1.45;;
51618;SDS011;38518;53.164;5.430;2022-07-10T11:49:32;2.03;;;1.20;;
51618;SDS011;38518;53.164;5.430;2022-07-10T11:52:03;4.03;;;1.55;;
51618;SDS011;38518;53.164;5.430;2022-07-10T11:54:29;5.25;;;1.85;;
51618;SDS011;38518;53.164;5.430;2022-07-10T11:56:55;4.07;;;1.45;;
51618;SDS011;38518;53.164;5.430;2022-07-10T11:59:25;2.80;;;1.33;;
51618;SDS011;38518;53.164;5.430;2022-07-10T12:01:55;3.42;;;1.45;;
51618;SDS011;38518;53.164;5.430;2022-07-10T12:04:22;3.03;;;1.38;;
51618;SDS011;38518;53.164;5.430;2022-07-10T12:06:52;3.95;;;1.33;;
51618;SDS011;38518;53.164;5.430;2022-07-10T12:09:19;2.40;;;1.20;;
51618;SDS011;38518;53.164;5.430;2022-07-10T12:12:03;2.67;;;1.30;;
51618;SDS011;38518;53.164;5.430;2022-07-10T12:14:31;3.50;;;1.25;;
51618;SDS011;38518;53.164;5.430;2022-07-10T12:16:58;2.83;;;1.38;;
51618;SDS011;38518;53.164;5.430;2022-07-10T12:19:28;3.35;;;1.45;;
51618;SDS011;38518;53.164;5.430;2022-07-10T12:21:58;3.13;;;1.70;;
51618;SDS011;38518;53.164;5.430;2022-07-10T12:24:25;3.30;;;1.52;;
51618;SDS011;38518;53.164;5.430;2022-07-10T12:26:51;3.22;;;1.58;;
51618;SDS011;38518;53.164;5.430;2022-07-10T12:29:22;3.78;;;1.45;;
51618;SDS011;38518;53.164;5.430;2022-07-10T12:31:58;3.38;;;1.40;;
51618;SDS011;38518;53.164;5.430;2022-07-10T12:34:35;3.88;;;1.85;;
51618;SDS011;38518;53.164;5.430;2022-07-10T12:37:12;5.43;;;1.90;;
51618;SDS011;38518;53.164;5.430;2022-07-10T12:39:46;13.85;;;2.13;;
51618;SDS011;38518;53.164;5.430;2022-07-10T12:42:13;3.55;;;1.40;;
51618;SDS011;38518;53.164;5.430;2022-07-10T12:44:49;3.08;;;1.30;;
51618;SDS011;38518;53.164;5.430;2022-07-10T12:47:18;2.78;;;1.67;;
51618;SDS011;38518;53.164;5.430;2022-07-10T12:49:51;4.50;;;1.55;;
51618;SDS011;38518;53.164;5.430;2022-07-10T12:52:32;3.90;;;1.55;;
51618;SDS011;38518;53.164;5.430;2022-07-10T12:57:51;2.97;;;1.40;;
51618;SDS011;38518;53.164;5.430;2022-07-10T13:00:19;2.47;;;1.60;;
51618;SDS011;38518;53.164;5.430;2022-07-10T13:02:56;4.68;;;1.75;;
51618;SDS011;38518;53.164;5.430;2022-07-10T13:05:30;6.72;;;1.77;;
51618;SDS011;38518;53.164;5.430;2022-07-10T13:10:35;5.07;;;1.75;;
51618;SDS011;38518;53.164;5.430;2022-07-10T13:13:02;3.33;;;1.70;;
51618;SDS011;38518;53.164;5.430;2022-07-10T13:15:31;4.53;;;1.73;;
51618;SDS011;38518;53.164;5.430;2022-07-10T13:18:04;3.30;;;1.67;;
51618;SDS011;38518;53.164;5.430;2022-07-10T13:20:31;4.15;;;1.70;;
51618;SDS011;38518;53.164;5.430;2022-07-10T13:22:57;4.40;;;1.80;;
51618;SDS011;38518;53.164;5.430;2022-07-10T13:25:25;3.95;;;1.77;;
51618;SDS011;38518;53.164;5.430;2022-07-10T13:27:51;5.10;;;1.90;;
51618;SDS011;38518;53.164;5.430;2022-07-10T13:30:17;4.10;;;1.90;;
51618;SDS011;38518;53.164;5.430;2022-07-10T13:32:43;5.07;;;1.90;;
51618;SDS011;38518;53.164;5.430;2022-07-10T13:35:08;4.57;;;1.77;;
51618;SDS011;38518;53.164;5.430;2022-07-10T13:37:34;3.17;;;1.60;;
51618;SDS011;38518;53.164;5.430;2022-07-10T13:40:00;5.80;;;1.77;;
51618;SDS011;38518;53.164;5.430;2022-07-10T13:42:26;4.03;;;1.75;;
51618;SDS011;38518;53.164;5.430;2022-07-10T13:44:52;6.90;;;1.85;;
51618;SDS011;38518;53.164;5.430;2022-07-10T13:47:18;3.55;;;1.58;;
51618;SDS011;38518;53.164;5.430;2022-07-10T13:49:44;4.28;;;2.00;;
51618;SDS011;38518;53.164;5.430;2022-07-10T13:52:09;6.85;;;2.20;;
51618;SDS011;38518;53.164;5.430;2022-07-10T13:54:35;4.53;;;1.95;;
51618;SDS011;38518;53.164;5.430;2022-07-10T13:57:01;3.55;;;1.70;;
51618;SDS011;38518;53.164;5.430;2022-07-10T13:59:27;5.95;;;1.77;;
51618;SDS011;38518;53.164;5.430;2022-07-10T14:01:53;4.28;;;2.17;;
51618;SDS011;38518;53.164;5.430;2022-07-10T14:04:18;6.20;;;1.80;;
51618;SDS011;38518;53.164;5.430;2022-07-10T14:06:44;4.72;;;2.10;;
51618;SDS011;38518;53.164;5.430;2022-07-10T14:09:10;4.20;;;1.83;;
51618;SDS011;38518;53.164;5.430;2022-07-10T14:11:36;5.50;;;2.40;;
51618;SDS011;38518;53.164;5.430;2022-07-10T14:14:01;5.30;;;2.10;;
51618;SDS011;38518;53.164;5.430;2022-07-10T14:16:27;4.75;;;2.30;;
51618;SDS011;38518;53.164;5.430;2022-07-10T14:18:53;6.18;;;2.30;;
51618;SDS011;38518;53.164;5.430;2022-07-10T14:21:19;6.32;;;2.20;;
51618;SDS011;38518;53.164;5.430;2022-07-10T14:23:45;6.07;;;2.53;;
51618;SDS011;38518;53.164;5.430;2022-07-10T14:26:22;7.45;;;2.38;;
51618;SDS011;38518;53.164;5.430;2022-07-10T14:28:48;5.85;;;2.38;;
51618;SDS011;38518;53.164;5.430;2022-07-10T14:31:14;5.43;;;2.50;;
51618;SDS011;38518;53.164;5.430;2022-07-10T14:33:40;8.00;;;2.65;;
51618;SDS011;38518;53.164;5.430;2022-07-10T14:36:06;5.15;;;2.33;;
51618;SDS011;38518;53.164;5.430;2022-07-10T14:38:34;5.10;;;1.98;;
51618;SDS011;38518;53.164;5.430;2022-07-10T14:41:04;6.15;;;2.45;;
51618;SDS011;38518;53.164;5.430;2022-07-10T14:43:31;7.28;;;2.72;;
51618;SDS011;38518;53.164;5.430;2022-07-10T14:46:01;5.38;;;2.40;;
51618;SDS011;38518;53.164;5.430;2022-07-10T14:48:30;5.32;;;2.47;;
51618;SDS011;38518;53.164;5.430;2022-07-10T14:50:56;5.07;;;2.78;;
51618;SDS011;38518;53.164;5.430;2022-07-10T14:53:25;5.13;;;2.33;;
51618;SDS011;38518;53.164;5.430;2022-07-10T14:55:51;6.82;;;2.30;;
51618;SDS011;38518;53.164;5.430;2022-07-10T14:58:17;6.20;;;2.28;;
51618;SDS011;38518;53.164;5.430;2022-07-10T15:00:43;5.45;;;2.53;;
51618;SDS011;38518;53.164;5.430;2022-07-10T15:03:09;5.30;;;2.28;;
51618;SDS011;38518;53.164;5.430;2022-07-10T15:05:35;5.53;;;2.38;;
51618;SDS011;38518;53.164;5.430;2022-07-10T15:08:01;5.18;;;2.15;;
51618;SDS011;38518;53.164;5.430;2022-07-10T15:10:28;4.18;;;2.20;;
51618;SDS011;38518;53.164;5.430;2022-07-10T15:12:58;6.53;;;2.33;;
51618;SDS011;38518;53.164;5.430;2022-07-10T15:15:24;8.10;;;2.53;;
51618;SDS011;38518;53.164;5.430;2022-07-10T15:17:51;7.28;;;2.80;;
51618;SDS011;38518;53.164;5.430;2022-07-10T15:20:16;5.85;;;2.40;;
51618;SDS011;38518;53.164;5.430;2022-07-10T15:22:44;4.80;;;2.20;;
51618;SDS011;38518;53.164;5.430;2022-07-10T15:25:10;3.88;;;1.92;;
51618;SDS011;38518;53.164;5.430;2022-07-10T15:27:36;5.32;;;2.20;;
51618;SDS011;38518;53.164;5.430;2022-07-10T15:30:02;5.82;;;2.10;;
51618;SDS011;38518;53.164;5.430;2022-07-10T15:32:30;5.85;;;2.70;;
51618;SDS011;38518;53.164;5.430;2022-07-10T15:34:56;5.07;;;2.10;;
51618;SDS011;38518;53.164;5.430;2022-07-10T15:37:22;4.47;;;2.03;;
51618;SDS011;38518;53.164;5.430;2022-07-10T15:39:48;7.78;;;2.30;;
51618;SDS011;38518;53.164;5.430;2022-07-10T15:42:14;5.75;;;2.45;;
51618;SDS011;38518;53.164;5.430;2022-07-10T15:44:40;5.22;;;2.35;;